sensor_id;sensor_type;location;lat;lon;timestamp;temperature;humidity
37086;DHT22;23001;45.952;12.676;2024-01-06T00:01:59;9.50;99.90
37086;DHT22;23001;45.952;12.676;2024-01-06T00:04:25;9.50;99.90
37086;DHT22;23001;45.952;12.676;2024-01-06T00:06:51;9.50;99.90
37086;DHT22;23001;45.952;12.676;2024-01-06T00:09:16;9.50;99.90
37086;DHT22;23001;45.952;12.676;2024-01-06T00:11:42;9.50;99.90
37086;DHT22;23001;45.952;12.676;2024-01-06T00:14:08;9.50;99.90
37086;DHT22;23001;45.952;12.676;2024-01-06T00:16:33;9.50;99.90
37086;DHT22;23001;45.952;12.676;2024-01-06T00:18:59;9.50;99.90
37086;DHT22;23001;45.952;12.676;2024-01-06T00:21:26;9.50;99.90
37086;DHT22;23001;45.952;12.676;2024-01-06T00:23:51;9.50;99.90
37086;DHT22;23001;45.952;12.676;2024-01-06T00:26:17;9.50;99.90
37086;DHT22;23001;45.952;12.676;2024-01-06T00:28:43;9.50;99.90
37086;DHT22;23001;45.952;12.676;2024-01-06T00:31:09;9.50;99.90
37086;DHT22;23001;45.952;12.676;2024-01-06T00:33:34;9.50;99.90
37086;DHT22;23001;45.952;12.676;2024-01-06T00:36:00;9.50;99.90
37086;DHT22;23001;45.952;12.676;2024-01-06T00:38:26;9.50;99.90
37086;DHT22;23001;45.952;12.676;2024-01-06T00:40:51;9.50;99.90
37086;DHT22;23001;45.952;12.676;2024-01-06T00:43:17;9.50;99.90
37086;DHT22;23001;45.952;12.676;2024-01-06T00:45:43;9.50;99.90
37086;DHT22;23001;45.952;12.676;2024-01-06T00:48:08;9.50;99.90
37086;DHT22;23001;45.952;12.676;2024-01-06T00:50:34;9.50;99.90
37086;DHT22;23001;45.952;12.676;2024-01-06T00:53:00;9.50;99.90
37086;DHT22;23001;45.952;12.676;2024-01-06T00:55:25;9.40;99.90
37086;DHT22;23001;45.952;12.676;2024-01-06T00:57:51;9.40;99.90
37086;DHT22;23001;45.952;12.676;2024-01-06T01:13:35;9.50;99.90
37086;DHT22;23001;45.952;12.676;2024-01-06T01:21:32;9.50;99.90
37086;DHT22;23001;45.952;12.676;2024-01-06T01:27:43;9.40;99.90
37086;DHT22;23001;45.952;12.676;2024-01-06T01:36:46;9.50;99.90
37086;DHT22;23001;45.952;12.676;2024-01-06T01:40:10;9.50;99.90
37086;DHT22;23001;45.952;12.676;2024-01-06T01:42:51;9.50;99.90
37086;DHT22;23001;45.952;12.676;2024-01-06T01:49:20;9.50;99.90
37086;DHT22;23001;45.952;12.676;2024-01-06T01:51:52;9.50;99.90
37086;DHT22;23001;45.952;12.676;2024-01-06T01:54:18;9.50;99.90
37086;DHT22;23001;45.952;12.676;2024-01-06T01:56:47;9.50;99.90
37086;DHT22;23001;45.952;12.676;2024-01-06T01:59:18;9.50;99.90
37086;DHT22;23001;45.952;12.676;2024-01-06T02:01:44;9.50;99.90
37086;DHT22;23001;45.952;12.676;2024-01-06T02:04:12;9.40;99.90
37086;DHT22;23001;45.952;12.676;2024-01-06T02:06:37;9.40;99.90
37086;DHT22;23001;45.952;12.676;2024-01-06T02:09:03;9.40;99.90
37086;DHT22;23001;45.952;12.676;2024-01-06T02:11:29;9.40;99.90
37086;DHT22;23001;45.952;12.676;2024-01-06T02:13:54;9.40;99.90
37086;DHT22;23001;45.952;12.676;2024-01-06T02:16:20;9.40;99.90
37086;DHT22;23001;45.952;12.676;2024-01-06T02:18:46;9.40;99.90
37086;DHT22;23001;45.952;12.676;2024-01-06T02:21:12;9.40;99.90
37086;DHT22;23001;45.952;12.676;2024-01-06T02:23:38;9.40;99.90
37086;DHT22;23001;45.952;12.676;2024-01-06T02:26:04;9.40;99.90
37086;DHT22;23001;45.952;12.676;2024-01-06T02:28:30;9.40;99.90
37086;DHT22;23001;45.952;12.676;2024-01-06T02:30:56;9.40;99.90
37086;DHT22;23001;45.952;12.676;2024-01-06T02:33:21;9.30;99.90
37086;DHT22;23001;45.952;12.676;2024-01-06T02:35:50;9.30;99.90
37086;DHT22;23001;45.952;12.676;2024-01-06T02:38:18;9.30;99.90
37086;DHT22;23001;45.952;12.676;2024-01-06T02:40:44;9.20;99.90
37086;DHT22;23001;45.952;12.676;2024-01-06T02:43:09;9.20;99.90
37086;DHT22;23001;45.952;12.676;2024-01-06T02:45:35;9.20;99.90
37086;DHT22;23001;45.952;12.676;2024-01-06T02:48:01;9.10;99.90
37086;DHT22;23001;45.952;12.676;2024-01-06T02:50:26;9.20;99.90
37086;DHT22;23001;45.952;12.676;2024-01-06T02:52:52;9.10;99.90
37086;DHT22;23001;45.952;12.676;2024-01-06T02:55:18;9.20;99.90
37086;DHT22;23001;45.952;12.676;2024-01-06T02:57:43;9.10;99.90
37086;DHT22;23001;45.952;12.676;2024-01-06T03:00:09;9.10;99.90
37086;DHT22;23001;45.952;12.676;2024-01-06T03:02:35;9.10;99.90
37086;DHT22;23001;45.952;12.676;2024-01-06T03:05:03;9.10;99.90
37086;DHT22;23001;45.952;12.676;2024-01-06T03:07:28;9.10;99.90
37086;DHT22;23001;45.952;12.676;2024-01-06T03:09:54;9.10;99.90
37086;DHT22;23001;45.952;12.676;2024-01-06T03:12:20;9.10;99.90
37086;DHT22;23001;45.952;12.676;2024-01-06T03:14:47;9.10;99.90
37086;DHT22;23001;45.952;12.676;2024-01-06T03:17:12;9.10;99.90
37086;DHT22;23001;45.952;12.676;2024-01-06T03:19:39;9.10;99.90
37086;DHT22;23001;45.952;12.676;2024-01-06T03:22:38;9.10;99.90
37086;DHT22;23001;45.952;12.676;2024-01-06T03:25:36;9.10;99.90
37086;DHT22;23001;45.952;12.676;2024-01-06T03:35:00;9.10;99.90
37086;DHT22;23001;45.952;12.676;2024-01-06T03:37:55;9.10;99.90
37086;DHT22;23001;45.952;12.676;2024-01-06T03:40:36;9.10;99.90
37086;DHT22;23001;45.952;12.676;2024-01-06T03:48:24;9.00;99.90
37086;DHT22;23001;45.952;12.676;2024-01-06T04:01:21;9.10;99.90
37086;DHT22;23001;45.952;12.676;2024-01-06T04:14:20;9.10;99.90
37086;DHT22;23001;45.952;12.676;2024-01-06T04:16:58;9.10;99.90
37086;DHT22;23001;45.952;12.676;2024-01-06T04:27:01;9.10;99.90
37086;DHT22;23001;45.952;12.676;2024-01-06T04:29:36;9.10;99.90
37086;DHT22;23001;45.952;12.676;2024-01-06T04:43:16;9.10;99.90
37086;DHT22;23001;45.952;12.676;2024-01-06T04:45:50;9.20;99.90
37086;DHT22;23001;45.952;12.676;2024-01-06T04:59:07;9.20;99.90
37086;DHT22;23001;45.952;12.676;2024-01-06T05:45:55;9.30;99.90
37086;DHT22;23001;45.952;12.676;2024-01-06T06:00:01;9.30;99.90
37086;DHT22;23001;45.952;12.676;2024-01-06T06:06:07;9.30;99.90
37086;DHT22;23001;45.952;12.676;2024-01-06T06:22:49;9.40;99.90
37086;DHT22;23001;45.952;12.676;2024-01-06T06:32:19;9.40;99.90
37086;DHT22;23001;45.952;12.676;2024-01-06T06:34:50;9.40;99.90
37086;DHT22;23001;45.952;12.676;2024-01-06T06:40:46;9.50;99.90
37086;DHT22;23001;45.952;12.676;2024-01-06T06:43:48;9.50;99.90
37086;DHT22;23001;45.952;12.676;2024-01-06T06:46:19;9.50;99.90
37086;DHT22;23001;45.952;12.676;2024-01-06T06:48:57;9.50;99.90
37086;DHT22;23001;45.952;12.676;2024-01-06T06:51:26;9.50;99.90
37086;DHT22;23001;45.952;12.676;2024-01-06T06:54:45;9.50;99.90
37086;DHT22;23001;45.952;12.676;2024-01-06T08:24:56;9.80;99.90
37086;DHT22;23001;45.952;12.676;2024-01-06T08:27:22;9.80;99.90
37086;DHT22;23001;45.952;12.676;2024-01-06T08:29:49;9.80;99.90
37086;DHT22;23001;45.952;12.676;2024-01-06T08:32:15;9.90;99.90
37086;DHT22;23001;45.952;12.676;2024-01-06T08:34:42;9.90;99.90
37086;DHT22;23001;45.952;12.676;2024-01-06T08:37:08;9.90;99.90
37086;DHT22;23001;45.952;12.676;2024-01-06T08:39:33;9.90;99.90
37086;DHT22;23001;45.952;12.676;2024-01-06T08:41:59;9.90;99.90
37086;DHT22;23001;45.952;12.676;2024-01-06T08:44:24;9.90;99.90
37086;DHT22;23001;45.952;12.676;2024-01-06T08:46:50;9.90;99.90
37086;DHT22;23001;45.952;12.676;2024-01-06T08:49:16;9.90;99.90
37086;DHT22;23001;45.952;12.676;2024-01-06T08:51:43;9.90;99.90
37086;DHT22;23001;45.952;12.676;2024-01-06T08:54:09;9.90;99.90
37086;DHT22;23001;45.952;12.676;2024-01-06T08:56:35;9.90;99.90
37086;DHT22;23001;45.952;12.676;2024-01-06T08:59:01;9.90;99.90
37086;DHT22;23001;45.952;12.676;2024-01-06T09:01:27;9.90;99.90
37086;DHT22;23001;45.952;12.676;2024-01-06T09:03:52;9.90;99.90
37086;DHT22;23001;45.952;12.676;2024-01-06T09:06:18;9.90;99.90
37086;DHT22;23001;45.952;12.676;2024-01-06T09:08:44;9.90;99.90
37086;DHT22;23001;45.952;12.676;2024-01-06T09:11:09;9.90;99.90
37086;DHT22;23001;45.952;12.676;2024-01-06T09:13:35;9.90;99.90
37086;DHT22;23001;45.952;12.676;2024-01-06T09:16:01;9.90;99.90
37086;DHT22;23001;45.952;12.676;2024-01-06T09:18:27;9.90;99.90
37086;DHT22;23001;45.952;12.676;2024-01-06T09:20:53;9.90;99.90
37086;DHT22;23001;45.952;12.676;2024-01-06T09:23:19;9.80;99.90
37086;DHT22;23001;45.952;12.676;2024-01-06T09:25:46;9.80;99.90
37086;DHT22;23001;45.952;12.676;2024-01-06T09:28:11;9.80;99.90
37086;DHT22;23001;45.952;12.676;2024-01-06T09:30:37;9.80;99.90
37086;DHT22;23001;45.952;12.676;2024-01-06T09:33:03;9.80;99.90
37086;DHT22;23001;45.952;12.676;2024-01-06T09:35:29;9.80;99.90
37086;DHT22;23001;45.952;12.676;2024-01-06T09:37:54;9.80;99.90
37086;DHT22;23001;45.952;12.676;2024-01-06T09:40:22;9.90;99.90
37086;DHT22;23001;45.952;12.676;2024-01-06T09:42:52;9.80;99.90
37086;DHT22;23001;45.952;12.676;2024-01-06T09:45:21;9.90;99.90
37086;DHT22;23001;45.952;12.676;2024-01-06T09:47:51;9.90;99.90
37086;DHT22;23001;45.952;12.676;2024-01-06T09:50:21;9.90;99.90
37086;DHT22;23001;45.952;12.676;2024-01-06T09:52:48;9.90;99.90
37086;DHT22;23001;45.952;12.676;2024-01-06T09:55:26;9.90;99.90
37086;DHT22;23001;45.952;12.676;2024-01-06T09:57:55;9.90;99.90
37086;DHT22;23001;45.952;12.676;2024-01-06T10:00:21;9.90;99.90
37086;DHT22;23001;45.952;12.676;2024-01-06T10:02:50;9.90;99.90
37086;DHT22;23001;45.952;12.676;2024-01-06T10:05:20;9.90;99.90
37086;DHT22;23001;45.952;12.676;2024-01-06T10:07:47;9.90;99.90
37086;DHT22;23001;45.952;12.676;2024-01-06T10:10:14;9.90;99.90
37086;DHT22;23001;45.952;12.676;2024-01-06T10:12:41;9.90;99.90
37086;DHT22;23001;45.952;12.676;2024-01-06T10:15:10;9.90;99.90
37086;DHT22;23001;45.952;12.676;2024-01-06T10:17:37;9.90;99.90
37086;DHT22;23001;45.952;12.676;2024-01-06T10:20:08;10.00;99.90
37086;DHT22;23001;45.952;12.676;2024-01-06T10:22:40;10.00;99.90
37086;DHT22;23001;45.952;12.676;2024-01-06T10:25:07;10.00;99.90
37086;DHT22;23001;45.952;12.676;2024-01-06T10:27:39;10.00;99.90
37086;DHT22;23001;45.952;12.676;2024-01-06T10:30:09;10.00;99.90
37086;DHT22;23001;45.952;12.676;2024-01-06T10:32:35;10.00;99.90
37086;DHT22;23001;45.952;12.676;2024-01-06T10:35:02;10.00;99.90
37086;DHT22;23001;45.952;12.676;2024-01-06T10:37:29;10.10;99.90
37086;DHT22;23001;45.952;12.676;2024-01-06T10:40:08;10.10;99.90
37086;DHT22;23001;45.952;12.676;2024-01-06T10:42:33;10.10;99.90
37086;DHT22;23001;45.952;12.676;2024-01-06T10:45:01;10.10;99.90
37086;DHT22;23001;45.952;12.676;2024-01-06T10:47:27;10.20;99.90
37086;DHT22;23001;45.952;12.676;2024-01-06T10:50:00;10.20;99.90
37086;DHT22;23001;45.952;12.676;2024-01-06T10:52:27;10.20;99.90
37086;DHT22;23001;45.952;12.676;2024-01-06T10:54:54;10.20;99.90
37086;DHT22;23001;45.952;12.676;2024-01-06T10:57:21;10.30;99.90
37086;DHT22;23001;45.952;12.676;2024-01-06T10:59:50;10.20;99.90
37086;DHT22;23001;45.952;12.676;2024-01-06T11:02:19;10.20;99.90
37086;DHT22;23001;45.952;12.676;2024-01-06T11:04:46;10.30;99.90
37086;DHT22;23001;45.952;12.676;2024-01-06T11:07:21;10.20;99.90
37086;DHT22;23001;45.952;12.676;2024-01-06T11:16:02;10.30;99.90
37086;DHT22;23001;45.952;12.676;2024-01-06T11:23:34;10.30;99.90
37086;DHT22;23001;45.952;12.676;2024-01-06T11:25:54;10.30;99.90
37086;DHT22;23001;45.952;12.676;2024-01-06T11:28:20;10.30;99.90
37086;DHT22;23001;45.952;12.676;2024-01-06T11:30:45;10.20;99.90
37086;DHT22;23001;45.952;12.676;2024-01-06T11:43:45;10.20;99.90
37086;DHT22;23001;45.952;12.676;2024-01-06T11:46:49;10.20;99.90
37086;DHT22;23001;45.952;12.676;2024-01-06T11:49:20;10.20;99.90
37086;DHT22;23001;45.952;12.676;2024-01-06T11:51:46;10.20;99.90
37086;DHT22;23001;45.952;12.676;2024-01-06T11:54:12;10.20;99.90
37086;DHT22;23001;45.952;12.676;2024-01-06T11:56:38;10.20;99.90
37086;DHT22;23001;45.952;12.676;2024-01-06T11:59:05;10.20;99.90
37086;DHT22;23001;45.952;12.676;2024-01-06T12:01:37;10.20;99.90
37086;DHT22;23001;45.952;12.676;2024-01-06T12:04:04;10.20;99.90
37086;DHT22;23001;45.952;12.676;2024-01-06T12:06:31;10.20;99.90
37086;DHT22;23001;45.952;12.676;2024-01-06T12:09:07;10.20;99.90
37086;DHT22;23001;45.952;12.676;2024-01-06T12:11:33;10.20;99.90
37086;DHT22;23001;45.952;12.676;2024-01-06T12:13:59;10.20;99.90
37086;DHT22;23001;45.952;12.676;2024-01-06T12:16:25;10.20;99.90
37086;DHT22;23001;45.952;12.676;2024-01-06T12:18:54;10.20;99.90
37086;DHT22;23001;45.952;12.676;2024-01-06T12:21:25;10.20;99.90
37086;DHT22;23001;45.952;12.676;2024-01-06T12:23:50;10.20;99.90
37086;DHT22;23001;45.952;12.676;2024-01-06T12:26:17;10.20;99.90
37086;DHT22;23001;45.952;12.676;2024-01-06T12:31:18;10.20;99.90
37086;DHT22;23001;45.952;12.676;2024-01-06T12:33:46;10.20;99.90
37086;DHT22;23001;45.952;12.676;2024-01-06T12:47:56;10.20;99.90
37086;DHT22;23001;45.952;12.676;2024-01-06T12:50:22;10.20;99.90
37086;DHT22;23001;45.952;12.676;2024-01-06T13:14:03;10.10;99.90
37086;DHT22;23001;45.952;12.676;2024-01-06T13:16:29;10.00;99.90
37086;DHT22;23001;45.952;12.676;2024-01-06T13:18:57;10.00;99.90
37086;DHT22;23001;45.952;12.676;2024-01-06T13:21:23;10.00;99.90
37086;DHT22;23001;45.952;12.676;2024-01-06T13:23:49;10.00;99.90
37086;DHT22;23001;45.952;12.676;2024-01-06T13:26:15;10.00;99.90
37086;DHT22;23001;45.952;12.676;2024-01-06T13:28:41;10.00;99.90
37086;DHT22;23001;45.952;12.676;2024-01-06T13:31:06;9.90;99.90
37086;DHT22;23001;45.952;12.676;2024-01-06T13:33:35;9.90;99.90
37086;DHT22;23001;45.952;12.676;2024-01-06T13:39:07;9.90;99.90
37086;DHT22;23001;45.952;12.676;2024-01-06T13:41:32;9.90;99.90
37086;DHT22;23001;45.952;12.676;2024-01-06T13:43:58;9.90;99.90
37086;DHT22;23001;45.952;12.676;2024-01-06T13:46:24;9.90;99.90
37086;DHT22;23001;45.952;12.676;2024-01-06T13:48:51;9.90;99.90
37086;DHT22;23001;45.952;12.676;2024-01-06T13:51:16;9.90;99.90
37086;DHT22;23001;45.952;12.676;2024-01-06T13:53:42;9.90;99.90
37086;DHT22;23001;45.952;12.676;2024-01-06T13:56:08;9.90;99.90
37086;DHT22;23001;45.952;12.676;2024-01-06T13:58:33;9.90;99.90
37086;DHT22;23001;45.952;12.676;2024-01-06T14:01:02;9.80;99.90
37086;DHT22;23001;45.952;12.676;2024-01-06T14:03:28;9.90;99.90
37086;DHT22;23001;45.952;12.676;2024-01-06T14:05:53;9.90;99.90
37086;DHT22;23001;45.952;12.676;2024-01-06T14:08:19;9.80;99.90
37086;DHT22;23001;45.952;12.676;2024-01-06T14:10:45;9.90;99.90
37086;DHT22;23001;45.952;12.676;2024-01-06T14:13:11;9.90;99.90
37086;DHT22;23001;45.952;12.676;2024-01-06T14:15:36;9.90;99.90
37086;DHT22;23001;45.952;12.676;2024-01-06T14:18:03;9.90;99.90
37086;DHT22;23001;45.952;12.676;2024-01-06T14:55:51;9.80;99.90
37086;DHT22;23001;45.952;12.676;2024-01-06T14:58:17;9.80;99.90
37086;DHT22;23001;45.952;12.676;2024-01-06T15:00:43;9.70;99.90
37086;DHT22;23001;45.952;12.676;2024-01-06T15:03:08;9.70;99.90
37086;DHT22;23001;45.952;12.676;2024-01-06T15:05:34;9.70;99.90
37086;DHT22;23001;45.952;12.676;2024-01-06T15:08:00;9.70;99.90
37086;DHT22;23001;45.952;12.676;2024-01-06T15:10:26;9.70;99.90
37086;DHT22;23001;45.952;12.676;2024-01-06T15:12:58;9.70;99.90
37086;DHT22;23001;45.952;12.676;2024-01-06T15:15:24;9.70;99.90
37086;DHT22;23001;45.952;12.676;2024-01-06T15:17:50;9.60;99.90
37086;DHT22;23001;45.952;12.676;2024-01-06T15:20:16;9.60;99.90
37086;DHT22;23001;45.952;12.676;2024-01-06T15:22:42;9.60;99.90
37086;DHT22;23001;45.952;12.676;2024-01-06T15:25:08;9.60;99.90
37086;DHT22;23001;45.952;12.676;2024-01-06T15:27:38;9.60;99.90
37086;DHT22;23001;45.952;12.676;2024-01-06T15:30:04;9.60;99.90
37086;DHT22;23001;45.952;12.676;2024-01-06T15:32:34;9.60;99.90
37086;DHT22;23001;45.952;12.676;2024-01-06T15:35:00;9.60;99.90
37086;DHT22;23001;45.952;12.676;2024-01-06T15:37:26;9.60;99.90
37086;DHT22;23001;45.952;12.676;2024-01-06T15:39:52;9.60;99.90
37086;DHT22;23001;45.952;12.676;2024-01-06T15:42:18;9.60;99.90
37086;DHT22;23001;45.952;12.676;2024-01-06T15:44:44;9.60;99.90
37086;DHT22;23001;45.952;12.676;2024-01-06T15:47:13;9.60;99.90
37086;DHT22;23001;45.952;12.676;2024-01-06T15:49:42;9.60;99.90
37086;DHT22;23001;45.952;12.676;2024-01-06T15:52:08;9.60;99.90
37086;DHT22;23001;45.952;12.676;2024-01-06T15:54:34;9.60;99.90
37086;DHT22;23001;45.952;12.676;2024-01-06T15:57:00;9.60;99.90
37086;DHT22;23001;45.952;12.676;2024-01-06T15:59:25;9.60;99.90
37086;DHT22;23001;45.952;12.676;2024-01-06T16:01:52;9.60;99.90
37086;DHT22;23001;45.952;12.676;2024-01-06T16:04:18;9.60;99.90
37086;DHT22;23001;45.952;12.676;2024-01-06T16:06:43;9.50;99.90
37086;DHT22;23001;45.952;12.676;2024-01-06T16:09:11;9.50;99.90
37086;DHT22;23001;45.952;12.676;2024-01-06T16:11:39;9.50;99.90
37086;DHT22;23001;45.952;12.676;2024-01-06T16:14:08;9.50;99.90
37086;DHT22;23001;45.952;12.676;2024-01-06T16:16:34;9.50;99.90
37086;DHT22;23001;45.952;12.676;2024-01-06T16:19:00;9.50;99.90
37086;DHT22;23001;45.952;12.676;2024-01-06T16:21:25;9.50;99.90
37086;DHT22;23001;45.952;12.676;2024-01-06T16:23:52;9.50;99.90
37086;DHT22;23001;45.952;12.676;2024-01-06T16:26:18;9.50;99.90
37086;DHT22;23001;45.952;12.676;2024-01-06T16:28:45;9.40;99.90
37086;DHT22;23001;45.952;12.676;2024-01-06T16:31:11;9.50;99.90
37086;DHT22;23001;45.952;12.676;2024-01-06T16:33:37;9.40;99.90
37086;DHT22;23001;45.952;12.676;2024-01-06T16:36:03;9.40;99.90
37086;DHT22;23001;45.952;12.676;2024-01-06T16:38:31;9.40;99.90
37086;DHT22;23001;45.952;12.676;2024-01-06T16:41:03;9.40;99.90
37086;DHT22;23001;45.952;12.676;2024-01-06T16:43:31;9.50;99.90
37086;DHT22;23001;45.952;12.676;2024-01-06T16:45:57;9.50;99.90
37086;DHT22;23001;45.952;12.676;2024-01-06T16:48:23;9.50;99.90
37086;DHT22;23001;45.952;12.676;2024-01-06T16:50:49;9.50;99.90
37086;DHT22;23001;45.952;12.676;2024-01-06T16:53:16;9.50;99.90
37086;DHT22;23001;45.952;12.676;2024-01-06T16:55:42;9.50;99.90
37086;DHT22;23001;45.952;12.676;2024-01-06T16:58:07;9.50;99.90
37086;DHT22;23001;45.952;12.676;2024-01-06T17:00:33;9.50;99.90
37086;DHT22;23001;45.952;12.676;2024-01-06T17:02:59;9.50;99.90
37086;DHT22;23001;45.952;12.676;2024-01-06T17:05:24;9.50;99.90
37086;DHT22;23001;45.952;12.676;2024-01-06T17:07:51;9.50;99.90
37086;DHT22;23001;45.952;12.676;2024-01-06T17:10:17;9.50;99.90
37086;DHT22;23001;45.952;12.676;2024-01-06T17:12:42;9.50;99.90
37086;DHT22;23001;45.952;12.676;2024-01-06T17:15:09;9.50;99.90
37086;DHT22;23001;45.952;12.676;2024-01-06T17:17:37;9.60;99.90
37086;DHT22;23001;45.952;12.676;2024-01-06T17:20:05;9.50;99.90
37086;DHT22;23001;45.952;12.676;2024-01-06T17:22:31;9.60;99.90
37086;DHT22;23001;45.952;12.676;2024-01-06T17:24:57;9.60;99.90
37086;DHT22;23001;45.952;12.676;2024-01-06T17:27:22;9.50;99.90
37086;DHT22;23001;45.952;12.676;2024-01-06T17:29:48;9.50;99.90
37086;DHT22;23001;45.952;12.676;2024-01-06T17:32:16;9.50;99.90
37086;DHT22;23001;45.952;12.676;2024-01-06T17:34:42;9.50;99.90
37086;DHT22;23001;45.952;12.676;2024-01-06T17:37:08;9.50;99.90
37086;DHT22;23001;45.952;12.676;2024-01-06T17:39:34;9.60;99.90
37086;DHT22;23001;45.952;12.676;2024-01-06T17:42:00;9.50;99.90
37086;DHT22;23001;45.952;12.676;2024-01-06T17:44:30;9.60;99.90
37086;DHT22;23001;45.952;12.676;2024-01-06T17:46:55;9.60;99.90
37086;DHT22;23001;45.952;12.676;2024-01-06T17:49:21;9.50;99.90
37086;DHT22;23001;45.952;12.676;2024-01-06T17:51:47;9.50;99.90
37086;DHT22;23001;45.952;12.676;2024-01-06T17:54:12;9.50;99.90
37086;DHT22;23001;45.952;12.676;2024-01-06T17:56:39;9.60;99.90
37086;DHT22;23001;45.952;12.676;2024-01-06T17:59:05;9.60;99.90
37086;DHT22;23001;45.952;12.676;2024-01-06T18:01:31;9.60;99.90
37086;DHT22;23001;45.952;12.676;2024-01-06T18:03:57;9.60;99.90
37086;DHT22;23001;45.952;12.676;2024-01-06T18:06:26;9.70;99.90
37086;DHT22;23001;45.952;12.676;2024-01-06T18:08:53;9.70;99.90
37086;DHT22;23001;45.952;12.676;2024-01-06T18:11:19;9.70;99.90
37086;DHT22;23001;45.952;12.676;2024-01-06T18:13:46;9.70;99.90
37086;DHT22;23001;45.952;12.676;2024-01-06T18:16:12;9.70;99.90
37086;DHT22;23001;45.952;12.676;2024-01-06T18:18:40;9.80;99.90
37086;DHT22;23001;45.952;12.676;2024-01-06T18:21:06;9.80;99.90
37086;DHT22;23001;45.952;12.676;2024-01-06T18:23:32;9.80;99.90
37086;DHT22;23001;45.952;12.676;2024-01-06T18:25:58;9.80;99.90
37086;DHT22;23001;45.952;12.676;2024-01-06T18:28:24;9.80;99.90
37086;DHT22;23001;45.952;12.676;2024-01-06T18:30:52;9.80;99.90
37086;DHT22;23001;45.952;12.676;2024-01-06T18:33:19;9.90;99.90
37086;DHT22;23001;45.952;12.676;2024-01-06T18:35:45;10.00;99.90
37086;DHT22;23001;45.952;12.676;2024-01-06T18:38:10;10.00;99.90
37086;DHT22;23001;45.952;12.676;2024-01-06T18:40:36;9.90;99.90
37086;DHT22;23001;45.952;12.676;2024-01-06T18:43:02;10.00;99.90
37086;DHT22;23001;45.952;12.676;2024-01-06T18:45:27;10.00;99.90
37086;DHT22;23001;45.952;12.676;2024-01-06T18:47:53;10.00;99.90
37086;DHT22;23001;45.952;12.676;2024-01-06T18:50:19;10.00;99.90
37086;DHT22;23001;45.952;12.676;2024-01-06T18:52:48;10.00;99.90
37086;DHT22;23001;45.952;12.676;2024-01-06T18:55:15;10.00;99.90
37086;DHT22;23001;45.952;12.676;2024-01-06T18:57:41;10.00;99.90
37086;DHT22;23001;45.952;12.676;2024-01-06T19:00:07;10.00;99.90
37086;DHT22;23001;45.952;12.676;2024-01-06T19:02:34;10.10;99.90
37086;DHT22;23001;45.952;12.676;2024-01-06T19:04:59;10.10;99.90
37086;DHT22;23001;45.952;12.676;2024-01-06T19:07:27;10.10;99.90
37086;DHT22;23001;45.952;12.676;2024-01-06T19:09:53;10.10;99.90
37086;DHT22;23001;45.952;12.676;2024-01-06T19:12:19;10.00;99.90
37086;DHT22;23001;45.952;12.676;2024-01-06T19:14:45;10.00;99.90
37086;DHT22;23001;45.952;12.676;2024-01-06T19:17:12;9.90;99.90
37086;DHT22;23001;45.952;12.676;2024-01-06T19:19:38;9.90;99.90
37086;DHT22;23001;45.952;12.676;2024-01-06T19:22:06;9.80;99.90
37086;DHT22;23001;45.952;12.676;2024-01-06T19:24:32;9.80;99.90
37086;DHT22;23001;45.952;12.676;2024-01-06T19:26:58;9.80;99.90
37086;DHT22;23001;45.952;12.676;2024-01-06T19:29:23;9.80;99.90
37086;DHT22;23001;45.952;12.676;2024-01-06T19:31:51;9.80;99.90
37086;DHT22;23001;45.952;12.676;2024-01-06T19:34:17;9.70;99.90
37086;DHT22;23001;45.952;12.676;2024-01-06T19:36:42;9.70;99.90
37086;DHT22;23001;45.952;12.676;2024-01-06T19:39:08;9.70;99.90
37086;DHT22;23001;45.952;12.676;2024-01-06T19:41:34;9.70;99.90
37086;DHT22;23001;45.952;12.676;2024-01-06T19:44:01;9.60;99.90
37086;DHT22;23001;45.952;12.676;2024-01-06T19:46:27;9.60;99.90
37086;DHT22;23001;45.952;12.676;2024-01-06T19:48:53;9.70;99.90
37086;DHT22;23001;45.952;12.676;2024-01-06T19:51:18;9.70;99.90
37086;DHT22;23001;45.952;12.676;2024-01-06T19:53:44;9.70;99.90
37086;DHT22;23001;45.952;12.676;2024-01-06T19:56:13;9.60;99.90
37086;DHT22;23001;45.952;12.676;2024-01-06T19:58:46;9.60;99.90
37086;DHT22;23001;45.952;12.676;2024-01-06T20:01:11;9.60;99.90
37086;DHT22;23001;45.952;12.676;2024-01-06T20:03:37;9.60;99.90
37086;DHT22;23001;45.952;12.676;2024-01-06T20:06:04;9.60;99.90
37086;DHT22;23001;45.952;12.676;2024-01-06T20:08:30;9.60;99.90
37086;DHT22;23001;45.952;12.676;2024-01-06T20:10:58;9.60;99.90
37086;DHT22;23001;45.952;12.676;2024-01-06T20:13:29;9.60;99.90
37086;DHT22;23001;45.952;12.676;2024-01-06T20:15:55;9.50;99.90
37086;DHT22;23001;45.952;12.676;2024-01-06T20:18:25;9.50;99.90
37086;DHT22;23001;45.952;12.676;2024-01-06T20:20:52;9.50;99.90
37086;DHT22;23001;45.952;12.676;2024-01-06T20:23:18;9.50;99.90
37086;DHT22;23001;45.952;12.676;2024-01-06T20:25:44;9.50;99.90
37086;DHT22;23001;45.952;12.676;2024-01-06T20:28:10;9.50;99.90
37086;DHT22;23001;45.952;12.676;2024-01-06T20:30:37;9.50;99.90
37086;DHT22;23001;45.952;12.676;2024-01-06T20:33:04;9.50;99.90
37086;DHT22;23001;45.952;12.676;2024-01-06T20:35:29;9.50;99.90
37086;DHT22;23001;45.952;12.676;2024-01-06T20:37:55;9.50;99.90
37086;DHT22;23001;45.952;12.676;2024-01-06T20:40:22;9.60;99.90
37086;DHT22;23001;45.952;12.676;2024-01-06T20:42:47;9.70;99.90
37086;DHT22;23001;45.952;12.676;2024-01-06T20:45:13;9.70;99.90
37086;DHT22;23001;45.952;12.676;2024-01-06T20:47:41;9.80;99.90
37086;DHT22;23001;45.952;12.676;2024-01-06T20:50:07;9.80;99.90
37086;DHT22;23001;45.952;12.676;2024-01-06T20:52:34;9.80;99.90
37086;DHT22;23001;45.952;12.676;2024-01-06T20:55:00;9.80;99.90
37086;DHT22;23001;45.952;12.676;2024-01-06T20:57:27;9.90;99.90
37086;DHT22;23001;45.952;12.676;2024-01-06T20:59:53;10.10;99.90
37086;DHT22;23001;45.952;12.676;2024-01-06T21:02:19;10.10;99.90
37086;DHT22;23001;45.952;12.676;2024-01-06T21:04:46;10.10;99.90
37086;DHT22;23001;45.952;12.676;2024-01-06T21:07:12;10.10;99.90
37086;DHT22;23001;45.952;12.676;2024-01-06T21:09:38;10.10;99.90
37086;DHT22;23001;45.952;12.676;2024-01-06T21:12:04;10.10;99.90
37086;DHT22;23001;45.952;12.676;2024-01-06T21:14:30;10.10;99.90
37086;DHT22;23001;45.952;12.676;2024-01-06T21:16:56;10.10;99.90
37086;DHT22;23001;45.952;12.676;2024-01-06T21:19:22;10.20;99.90
37086;DHT22;23001;45.952;12.676;2024-01-06T21:21:49;10.20;99.90
37086;DHT22;23001;45.952;12.676;2024-01-06T21:24:15;10.20;99.90
37086;DHT22;23001;45.952;12.676;2024-01-06T21:26:41;10.20;99.90
37086;DHT22;23001;45.952;12.676;2024-01-06T21:29:08;10.20;99.90
37086;DHT22;23001;45.952;12.676;2024-01-06T21:31:34;10.20;99.90
37086;DHT22;23001;45.952;12.676;2024-01-06T21:34:00;10.10;99.90